Fort Caswell, North Carolina
Current Conditions -  °F | °C
As of 5:15 PM on Sunday 21 Dec 2014 (Local Time) from KSUT Reporting Station
Overcast Overcast  
Wind Chill: 43°   Ceiling: 6000
Heat Index: 48°   Visibility: 10mi
Dew Point: 40°   Wind: 12mph
Humidity: 73%   Direction: 20°NNE
Pressure: 30.19"   Gusts: NA
Location:  33.9216°N, 78.1244°W
Report Text: KSUT 212215Z AUTO 02010KT 10SM OVC060 09/04 A3019 RMK AO2 T00870042
Loading
Personal Weather Stations






























Interactive Weather Map New forecast layout! Learn more

10-Day Weather Forecast

Advertisements
Track Severe Weather on mobile